»·PEaware :: DCM330 KLAS-KPSP

DCM330 :: KLAS-KPSP

FLIGHT INFORMATION

Flight Status: Arrived
Operator: Unknown
More flights by this operator :: More flights under this callsign
Pilot: Cole F. (14495)
Aircraft: ECLIPSE 500
(EA50)
More flights by this aircraft type
Origin: KLAS McCarran Intl
United States
Destination: KPSP Palm Springs Intl
United States
More flights between these airports :: More routes between these airports
Route: BOACH8 TNP CLOWD SBONO1
File this flight plan on PilotEdge
Remarks:
Altitude:
(Current/Filed)
28,000ft
Speed:
(Current/Filed)
330kts
Departed: 05-Oct-17 05:13 PM
Arrived: 05-Oct-17 06:00 PM
Distance/Time
Traveled:
151nm/0:47
Distance/Time
To Go:
Arrived

Flight Plot

Page will automatically refresh every two minutes.

Flight plan parsing failed; only flown route is shown


Map Options




Map Legend


Flown Route
Filed Route
Departure Airport
Arrival Airport
Navaid (VOR, NDB)
Fix

Horizontal Profiles

Position Reports

Time Latitude Longitude Heading Altitude Ground
Speed
05-Oct-17 17:01 36.082663 -115.170037 89 2114ft 0kts
05-Oct-17 17:02 36.082663 -115.170037 89 2114ft 0kts
05-Oct-17 17:03 36.082663 -115.170037 89 2114ft 0kts
05-Oct-17 17:04 36.082663 -115.170037 89 2114ft 0kts
05-Oct-17 17:05 36.082663 -115.170037 89 2114ft 0kts
05-Oct-17 17:06 36.082663 -115.170037 89 2114ft 0kts
05-Oct-17 17:07 36.082663 -115.170037 89 2114ft 0kts
05-Oct-17 17:08 36.082134 -115.169815 172 2114ft 5kts
05-Oct-17 17:09 36.081940 -115.168976 25 2114ft 11kts
05-Oct-17 17:10 36.085263 -115.167058 26 2114ft 14kts
05-Oct-17 17:11 36.088787 -115.165064 25 2114ft 11kts
05-Oct-17 17:12 36.092109 -115.163162 24 2114ft 14kts
05-Oct-17 17:13 36.095470 -115.161245 24 2114ft 13kts
05-Oct-17 17:14 36.098969 -115.159240 26 2114ft 9kts
05-Oct-17 17:15 36.099864 -115.157510 86 2114ft 0kts
05-Oct-17 17:16 36.099668 -115.156867 122 2114ft 6kts
05-Oct-17 17:17 36.088487 -115.162894 204 2190ft 121kts
05-Oct-17 17:18 36.049813 -115.184831 203 3894ft 184kts
05-Oct-17 17:19 36.009140 -115.221786 239 6551ft 193kts
05-Oct-17 17:20 35.982084 -115.278982 240 8967ft 197kts
05-Oct-17 17:21 35.933102 -115.303530 186 10907ft 217kts
05-Oct-17 17:22 35.870594 -115.312382 186 12670ft 240kts
05-Oct-17 17:23 35.804655 -115.306583 180 14860ft 234kts
05-Oct-17 17:24 35.741184 -115.300177 182 16654ft 236kts
05-Oct-17 17:25 35.676092 -115.293789 187 18244ft 239kts
05-Oct-17 17:26 35.616179 -115.296593 189 19578ft 242kts
05-Oct-17 17:27 35.548586 -115.299528 189 20957ft 246kts
05-Oct-17 17:28 35.480209 -115.302346 189 22219ft 250kts
05-Oct-17 17:29 35.410890 -115.305138 189 22988ft 251kts
05-Oct-17 17:30 35.340595 -115.308018 189 23229ft 263kts
05-Oct-17 17:31 35.265671 -115.311086 189 24121ft 276kts
05-Oct-17 17:32 35.189013 -115.313864 189 25106ft 279kts
05-Oct-17 17:33 35.114393 -115.316408 191 26529ft 259kts
05-Oct-17 17:34 35.042539 -115.319317 191 27383ft 261kts
05-Oct-17 17:35 34.969819 -115.322424 191 27881ft 272kts
05-Oct-17 17:36 34.894003 -115.325583 191 27884ft 277kts
05-Oct-17 17:37 34.814624 -115.328870 190 27890ft 298kts
05-Oct-17 17:38 34.735302 -115.352864 205 27879ft 293kts
05-Oct-17 17:39 34.657337 -115.385668 206 27884ft 301kts
05-Oct-17 17:40 34.578834 -115.419594 206 27882ft 301kts
05-Oct-17 17:41 34.503357 -115.452386 206 27881ft 301kts
05-Oct-17 17:42 34.425048 -115.486438 207 27881ft 301kts
05-Oct-17 17:43 34.346596 -115.520502 207 27999ft 300kts
05-Oct-17 17:44 34.283532 -115.580084 226 27509ft 289kts
05-Oct-17 17:45 34.223572 -115.645846 227 26470ft 296kts
05-Oct-17 17:46 34.164110 -115.712035 226 24791ft 292kts
05-Oct-17 17:47 34.103600 -115.775947 218 22093ft 291kts
05-Oct-17 17:48 34.039268 -115.828653 218 18378ft 276kts
05-Oct-17 17:49 33.977785 -115.878888 217 14860ft 265kts
05-Oct-17 17:50 33.918275 -115.927436 219 11476ft 251kts
05-Oct-17 17:51 33.891316 -115.994131 221 10213ft 237kts
05-Oct-17 17:52 33.843899 -116.042696 221 8715ft 212kts
05-Oct-17 17:53 33.801542 -116.085917 221 7492ft 189kts
05-Oct-17 17:54 33.764224 -116.124293 221 6998ft 173kts
05-Oct-17 17:55 33.726694 -116.165183 221 6215ft 184kts
05-Oct-17 17:56 33.692212 -116.206518 249 4996ft 173kts
05-Oct-17 17:57 33.705259 -116.260115 290 3946ft 161kts
05-Oct-17 17:58 33.720277 -116.305959 291 3957ft 156kts
05-Oct-17 17:59 33.736606 -116.355939 291 3743ft 157kts
05-Oct-17 18:00 33.752443 -116.404373 291 3078ft 151kts
05-Oct-17 18:01 33.766510 -116.445891 300 2293ft 126kts
05-Oct-17 18:02 33.790138 -116.472514 328 1444ft 116kts
05-Oct-17 18:03 33.815046 -116.494769 325 618ft 107kts
05-Oct-17 18:04 33.831232 -116.509041 322 425ft 27kts
05-Oct-17 18:05 33.832613 -116.511956 188 425ft 11kts
05-Oct-17 18:06 33.829711 -116.509830 143 425ft 14kts
05-Oct-17 18:07 33.827429 -116.507696 143 425ft 13kts
05-Oct-17 18:08 33.825343 -116.508122 272 425ft 6kts
05-Oct-17 18:09 33.825110 -116.509494 88 425ft 0kts

Navigation Log

Ident Type
Flight plan parsing failed, navigation log unavailable